Broadalbin, NY

11:21 EDT le 23 août 2014 (GMT -0400)
Sacandaga Lake | Change Station
CLOSE
Current Station
Stations météorologiques personnelles
Location: Broadalbin, NY
Altitude: 770 ft
Stations météo à proximité

Alt. 770 ft 43.12 °N, 74.15 °W | Updated 7 seconds ago

Overcast
Couvert
62.7 ° F
Paraît 62.7 ° F
N
5.0
Vent Variable Vent de ESE
Gusts 6.0 mph

Aujourd'hui
Haut(e) -- | Bas -- ° F
--% Risque de précip.
Hier
Haut(e) -- | Bas -- ° F
Precip. -- pouce
6:11 AM 7:46 PM
Lune descendante, 3% visible
Pression 30.14 pouce
Visibilité 10.0 Miles terrestres
Nuages Peu 2500 ft
Couvert 6500 ft
Point de rosée 63 ° F
Humidité 100%
Précipitations 0.02 pouce
Profondeur de la couche neigeuse Non disponible.
UV 2 sur 12
Pollen 7.90 sur 12
Ozone Bon
PM2.5 Bon
Flu Activity Non disponible.
METAR KALB 231451Z 05006KT 10SM FEW025 OVC065 21/14 A3014

More Conditions Fewer Conditions

Pression 30.14 pouce
Visibilité 10.0 Miles terrestres
Nuages Peu 2500 ft
Couvert 6500 ft
Point de rosée 63 ° F
Humidité 100%
Précipitations 0.02 pouce
Profondeur de la couche neigeuse Non disponible.
UV 2 sur 12
Pollen 7.90 sur 12
Ozone Bon
PM2.5 Bon
Flu Activity Non disponible.
METAR KALB 231451Z 05006KT 10SM FEW025 OVC065 21/14 A3014

More Conditions Fewer Conditions

10-Day Weather Forecast

Almanac

Astronomie

Aug. 23, 2014 Lever Coucher
Temps réel 06:11 EDT 19:46 EDT
Crépuscule civil 05:41 EDT 20:16 EDT
Crépuscule nautique 05:04 EDT 20:52 EDT
Crépuscule astronomique 04:25 EDT 21:31 EDT
Lune 04:23 EDT 18:30 EDT
Durée de lumière visible 14h 35m
Longueur du jour
13h 35m
Tomorrow will be 2m 44s shorter.
Lune descendante, 3% of the Moon is Illuminated
Aujourd'hui
Lune descendante
août 25
Nouveau
Sep 2
Premier quartier
Sep 8
Pleine lune
Sep 15
Dernier quartier

Extrêmes aujourd'hui

State Highs State Lows

Community

WunderPhotos

Upload Photos

1,746,495 Photos téléchargées !

WunderBlogs® & News

By Dr. Jeff Masters
Director of Meteorology, Weather Underground
By Kari Strenfel
Meteorologist, Weather Underground
By Christopher C. Burt
Weather Historian, Weather Underground
August 23, 2014
August 23, 2014
August 23, 2014

Nearby

Qualité de l'air

  Qualité de l'air Indice de la qualité de l'air Polluant
Hier Bon
PM2.5
Hier Bon
OZONE
Actuel Bon
PM2.5
Actuel Bon
OZONE
samedi Bon
OZONE
samedi Bon
PM2.5
dimanche Bon
OZONE
dimanche Bon
PM2.5
lundi Bon
PM2.5
lundi Bon
OZONE

Épaisseur de neige

Station Depth Altitude
Pas de nouvelles chutes de neige

Activité sismique

Ville Distance Mag. Time & Date
No recent earthquake activity has been reported nearby.
Minimum magnitude displayed is 2.5.

Températures des eaux côtières

Lieu Température
Aucun rapport de station

Stations météo à proximité